Time;durP1;ratioP1;P1;durP2;ratioP2;P2;SDS_P1;SDS_P2;PMS_P1;PMS_P2;Temp;Humidity;BMP_temperature;BMP_pressure;BME280_temperature;BME280_humidity;BME280_pressure;Samples;Min_cycle;Max_cycle;Signal;HPM_P1;HPM_P2
2023/07/21 00:01:46;;;;;;;1.77;1.42;;;27.30;36.90;;;;;;5151362;27;45314;-69
2023/07/21 00:04:13;;;;;;;1.58;1.25;;;27.30;37.00;;;;;;5151431;27;45243;-69
2023/07/21 00:06:43;;;;;;;1.40;1.30;;;27.30;37.00;;;;;;5150815;27;46678;-69
2023/07/21 00:09:10;;;;;;;1.50;1.40;;;27.30;37.00;;;;;;5150948;27;45326;-69
2023/07/21 00:11:38;;;;;;;1.63;1.27;;;27.30;37.10;;;;;;5151046;27;45213;-68
2023/07/21 00:14:05;;;;;;;1.30;1.20;;;27.30;37.20;;;;;;5151108;27;45389;-69
2023/07/21 00:16:32;;;;;;;1.30;1.10;;;27.30;37.20;;;;;;5150772;27;45729;-68
2023/07/21 00:19:01;;;;;;;1.40;1.30;;;27.20;37.10;;;;;;5150045;27;45303;-69
2023/07/21 00:21:29;;;;;;;1.40;1.30;;;27.20;37.20;;;;;;5150763;27;45433;-69
2023/07/21 00:23:56;;;;;;;1.30;1.20;;;27.20;37.20;;;;;;5150852;27;45381;-69
2023/07/21 00:26:24;;;;;;;1.50;1.27;;;27.20;37.20;;;;;;5150518;27;45396;-69
2023/07/21 00:28:51;;;;;;;1.73;1.40;;;27.20;37.30;;;;;;5150742;27;45260;-69
2023/07/21 00:31:18;;;;;;;1.33;1.23;;;27.20;37.20;;;;;;5150005;27;45381;-69
2023/07/21 00:33:44;;;;;;;1.60;1.40;;;27.20;37.30;;;;;;5150743;27;45402;-69
2023/07/21 00:36:13;;;;;;;1.30;1.20;;;27.20;37.30;;;;;;5150201;27;45490;-69
2023/07/21 00:38:40;;;;;;;1.40;1.30;;;27.20;37.30;;;;;;5150422;27;45363;-69
2023/07/21 00:41:07;;;;;;;2.17;1.30;;;27.10;37.40;;;;;;5150551;27;45421;-69
2023/07/21 00:43:34;;;;;;;1.30;1.20;;;27.10;37.40;;;;;;5150497;27;45556;-69
2023/07/21 00:46:01;;;;;;;1.30;1.20;;;27.10;37.40;;;;;;5150083;27;46257;-69
2023/07/21 00:48:28;;;;;;;1.30;1.15;;;27.10;37.40;;;;;;5150311;27;45334;-69
2023/07/21 00:50:55;;;;;;;1.48;1.30;;;27.10;37.40;;;;;;5150317;27;45173;-69
2023/07/21 00:53:23;;;;;;;1.20;1.10;;;27.10;37.40;;;;;;5150295;27;45326;-69
2023/07/21 00:55:50;;;;;;;1.52;1.40;;;27.10;37.40;;;;;;5149975;27;46736;-69
2023/07/21 00:58:19;;;;;;;2.30;1.35;;;27.10;37.50;;;;;;5150277;27;45271;-69
2023/07/21 01:00:47;;;;;;;1.40;1.30;;;27.00;37.50;;;;;;5150253;27;45196;-69
2023/07/21 01:03:14;;;;;;;1.30;1.20;;;27.00;37.40;;;;;;5150348;27;45307;-69
2023/07/21 01:05:42;;;;;;;1.27;0.95;;;27.00;37.50;;;;;;5149887;27;45296;-69
2023/07/21 01:08:10;;;;;;;1.30;1.20;;;27.00;37.50;;;;;;5149806;27;45280;-68
2023/07/21 01:10:38;;;;;;;1.17;1.10;;;27.00;37.60;;;;;;5149310;27;45326;-69
2023/07/21 01:13:05;;;;;;;2.45;1.40;;;27.00;37.60;;;;;;5150199;27;45323;-69
2023/07/21 01:15:32;;;;;;;1.90;1.40;;;27.00;37.70;;;;;;5149579;27;46411;-69
2023/07/21 01:17:59;;;;;;;1.92;1.30;;;27.00;37.70;;;;;;5149749;27;45252;-69
2023/07/21 01:20:27;;;;;;;1.40;1.30;;;26.90;37.60;;;;;;5149904;27;45361;-69
2023/07/21 01:22:56;;;;;;;1.98;1.10;;;26.90;37.60;;;;;;5150235;27;45419;-69
2023/07/21 01:25:24;;;;;;;1.42;1.30;;;26.90;37.70;;;;;;5149449;27;46424;-69
2023/07/21 01:27:52;;;;;;;1.20;1.10;;;26.90;37.70;;;;;;5149775;27;45395;-69
2023/07/21 01:30:20;;;;;;;1.20;1.10;;;26.90;37.70;;;;;;5149737;27;45345;-69
2023/07/21 01:32:48;;;;;;;1.00;1.00;;;26.80;37.70;;;;;;5149717;27;45411;-69
2023/07/21 01:35:17;;;;;;;1.10;1.00;;;26.80;37.70;;;;;;5149314;27;45301;-69
2023/07/21 01:37:44;;;;;;;1.50;1.40;;;26.80;37.70;;;;;;5149372;27;45502;-69
2023/07/21 01:40:12;;;;;;;1.30;1.10;;;26.80;37.80;;;;;;5149706;27;45366;-69
2023/07/21 01:42:41;;;;;;;1.58;1.30;;;26.80;37.80;;;;;;5148665;27;45428;-69
2023/07/21 01:45:08;;;;;;;1.40;1.30;;;26.80;37.80;;;;;;5149203;27;46375;-69
2023/07/21 01:47:35;;;;;;;2.85;1.10;;;26.80;37.80;;;;;;5149365;27;45407;-69
2023/07/21 01:50:03;;;;;;;1.30;1.02;;;26.70;37.70;;;;;;5149533;27;45394;-68
2023/07/21 01:52:31;;;;;;;1.63;1.10;;;26.70;37.80;;;;;;5149242;27;45240;-69
2023/07/21 01:55:00;;;;;;;1.08;1.08;;;26.70;37.80;;;;;;5149069;27;45277;-69
2023/07/21 01:57:29;;;;;;;1.23;1.10;;;26.70;37.80;;;;;;5149298;27;45363;-68
2023/07/21 01:59:58;;;;;;;1.88;1.10;;;26.70;37.90;;;;;;5148431;27;45263;-69
2023/07/21 02:02:25;;;;;;;1.70;1.35;;;26.60;37.80;;;;;;5149119;27;45618;-69
2023/07/21 02:04:51;;;;;;;1.30;1.20;;;26.60;37.90;;;;;;5149002;27;46901;-69
2023/07/21 02:07:20;;;;;;;1.30;1.20;;;26.60;37.90;;;;;;5149191;27;45343;-69
2023/07/21 02:09:48;;;;;;;1.00;0.95;;;26.60;38.00;;;;;;5149072;27;45375;-69
2023/07/21 02:12:15;;;;;;;1.20;1.10;;;26.60;38.00;;;;;;5149235;27;45308;-69
2023/07/21 02:14:41;;;;;;;1.42;1.33;;;26.60;38.00;;;;;;5148560;27;45320;-69
2023/07/21 02:17:10;;;;;;;1.85;1.30;;;26.60;38.00;;;;;;5148848;27;45594;-68
2023/07/21 02:19:36;;;;;;;1.30;1.10;;;26.50;38.00;;;;;;5149011;27;45381;-69
2023/07/21 02:22:03;;;;;;;1.58;1.17;;;26.50;38.00;;;;;;5149033;27;45249;-69
2023/07/21 02:24:30;;;;;;;1.55;1.40;;;26.50;38.10;;;;;;5148480;27;45519;-69
2023/07/21 02:26:59;;;;;;;1.17;1.10;;;26.50;38.70;;;;;;5148684;27;45366;-69
2023/07/21 02:29:27;;;;;;;1.20;1.10;;;26.50;38.10;;;;;;5148735;27;45252;-69
2023/07/21 02:31:54;;;;;;;1.10;1.00;;;26.50;38.10;;;;;;5148798;27;45358;-69
2023/07/21 02:34:22;;;;;;;1.17;1.08;;;26.40;38.10;;;;;;5148138;27;46686;-69
2023/07/21 02:36:49;;;;;;;1.20;1.10;;;26.40;38.10;;;;;;5148361;27;45370;-69
2023/07/21 02:39:16;;;;;;;1.08;1.02;;;26.40;38.20;;;;;;5148694;27;45320;-69
2023/07/21 02:41:42;;;;;;;1.00;1.00;;;26.40;38.20;;;;;;5149089;27;45291;-68
2023/07/21 02:44:09;;;;;;;1.02;1.00;;;26.40;38.20;;;;;;5148329;27;46746;-69
2023/07/21 02:46:36;;;;;;;1.27;0.98;;;26.40;38.20;;;;;;5147609;27;45342;-69
2023/07/21 02:49:03;;;;;;;1.52;1.20;;;26.30;38.20;;;;;;5148801;27;45361;-68
2023/07/21 02:51:32;;;;;;;1.48;1.20;;;26.30;38.20;;;;;;5148952;27;45317;-69
2023/07/21 02:53:59;;;;;;;1.30;1.20;;;26.40;38.30;;;;;;5147603;27;46364;-68
2023/07/21 02:56:26;;;;;;;1.40;1.20;;;26.30;38.20;;;;;;5148191;27;45376;-69
2023/07/21 02:58:53;;;;;;;1.13;1.08;;;26.30;38.20;;;;;;5148530;27;45438;-69
2023/07/21 03:01:20;;;;;;;2.33;1.20;;;26.30;38.30;;;;;;5148617;27;45248;-69
2023/07/21 03:03:46;;;;;;;1.55;1.40;;;26.20;38.20;;;;;;5147961;27;45474;-69
2023/07/21 03:06:12;;;;;;;2.53;1.20;;;26.30;38.30;;;;;;5148089;27;46638;-68
2023/07/21 03:08:41;;;;;;;2.10;1.33;;;26.20;38.30;;;;;;5148186;27;45403;-68
2023/07/21 03:11:07;;;;;;;1.27;1.17;;;26.20;38.20;;;;;;5148535;27;45505;-69
2023/07/21 03:13:34;;;;;;;1.10;1.00;;;26.20;38.30;;;;;;5147886;27;46342;-69
2023/07/21 03:16:02;;;;;;;2.13;1.30;;;26.20;38.30;;;;;;5148141;27;45303;-68
2023/07/21 03:18:29;;;;;;;1.23;1.13;;;26.20;38.30;;;;;;5148182;27;45310;-69
2023/07/21 03:20:59;;;;;;;1.10;1.10;;;26.20;38.30;;;;;;5148558;27;45388;-68
2023/07/21 03:23:26;;;;;;;1.63;1.23;;;26.20;38.30;;;;;;5147758;27;45251;-68
2023/07/21 03:25:54;;;;;;;1.17;1.08;;;26.20;38.40;;;;;;5147810;27;45305;-68
2023/07/21 03:28:23;;;;;;;2.38;1.30;;;26.20;38.40;;;;;;5148120;27;45453;-69
2023/07/21 03:30:57;;;;;;;1.70;1.60;;;26.10;38.40;;;;;;5148201;27;45364;-68
2023/07/21 03:33:24;;;;;;;1.25;1.15;;;26.10;38.40;;;;;;5147691;27;46412;-68
2023/07/21 03:35:58;;;;;;;1.08;0.98;;;26.10;38.50;;;;;;5146997;27;45267;-68
2023/07/21 03:38:25;;;;;;;1.30;1.20;;;26.10;38.50;;;;;;5153113;27;45273;-68
2023/07/21 03:41:01;;;;;;;1.10;1.05;;;26.10;38.50;;;;;;5155644;27;45562;-69
2023/07/21 03:43:28;;;;;;;1.50;1.00;;;26.10;38.60;;;;;;5147704;27;45466;-68
2023/07/21 03:45:57;;;;;;;0.98;0.98;;;26.00;38.50;;;;;;5147529;27;45346;-68
2023/07/21 03:48:24;;;;;;;1.42;1.08;;;26.00;38.50;;;;;;5148555;27;45366;-68
2023/07/21 03:50:51;;;;;;;1.10;1.00;;;26.00;38.50;;;;;;5147994;27;45239;-68
2023/07/21 03:53:18;;;;;;;1.13;1.00;;;26.00;38.50;;;;;;5147206;27;46403;-68
2023/07/21 03:55:45;;;;;;;1.20;1.10;;;26.00;38.60;;;;;;5147886;27;45661;-69
2023/07/21 03:58:13;;;;;;;1.88;1.00;;;26.00;38.60;;;;;;5147665;27;45428;-68
2023/07/21 04:00:42;;;;;;;1.17;1.08;;;26.00;38.60;;;;;;5148028;27;45453;-68
2023/07/21 04:03:09;;;;;;;1.25;1.15;;;25.90;38.60;;;;;;5148156;27;45299;-68
2023/07/21 04:05:35;;;;;;;1.23;1.13;;;25.90;38.60;;;;;;5148769;27;45449;-69
2023/07/21 04:08:03;;;;;;;2.58;1.23;;;25.90;38.60;;;;;;5151301;27;45316;-69
2023/07/21 04:10:30;;;;;;;1.45;0.95;;;25.90;38.60;;;;;;5151253;27;45318;-68
2023/07/21 04:12:57;;;;;;;0.93;0.93;;;25.90;38.60;;;;;;5150915;27;45302;-68
2023/07/21 04:15:25;;;;;;;1.88;1.35;;;25.90;38.60;;;;;;5150620;27;45298;-68
2023/07/21 04:17:52;;;;;;;1.00;1.00;;;25.90;38.80;;;;;;5150949;27;45375;-68
2023/07/21 04:20:19;;;;;;;2.05;1.20;;;25.80;38.60;;;;;;5151120;27;45312;-68
2023/07/21 04:22:45;;;;;;;1.38;1.10;;;25.90;38.70;;;;;;5150803;27;46750;-68
2023/07/21 04:25:12;;;;;;;1.83;1.20;;;25.80;38.70;;;;;;5149780;27;45256;-68
2023/07/21 04:27:39;;;;;;;1.80;1.30;;;25.80;39.30;;;;;;5150624;27;45310;-68
2023/07/21 04:30:07;;;;;;;1.27;1.17;;;25.80;38.70;;;;;;5150880;27;45422;-68
2023/07/21 04:32:38;;;;;;;1.40;1.30;;;25.80;38.80;;;;;;5150466;27;45386;-69
2023/07/21 04:35:08;;;;;;;1.27;1.17;;;25.80;38.80;;;;;;5150528;27;45427;-68
2023/07/21 04:37:35;;;;;;;1.10;1.00;;;25.80;38.90;;;;;;5150533;27;45377;-68
2023/07/21 04:40:03;;;;;;;1.13;1.00;;;25.80;38.80;;;;;;5150899;27;45323;-68
2023/07/21 04:42:30;;;;;;;1.10;1.00;;;25.70;38.80;;;;;;5150611;27;45269;-68
2023/07/21 04:44:56;;;;;;;1.40;1.30;;;25.80;38.90;;;;;;5150166;27;45359;-68
2023/07/21 04:47:23;;;;;;;1.35;1.00;;;25.70;38.80;;;;;;5150645;27;45322;-68
2023/07/21 04:49:53;;;;;;;1.27;1.17;;;25.70;38.80;;;;;;5150544;27;45336;-69
2023/07/21 04:52:20;;;;;;;1.20;1.10;;;25.70;38.90;;;;;;5149883;27;45677;-68
2023/07/21 04:54:47;;;;;;;1.00;1.00;;;25.70;38.90;;;;;;5149993;27;44825;-68
2023/07/21 04:57:14;;;;;;;1.20;1.10;;;25.70;38.90;;;;;;5150782;27;45401;-68
2023/07/21 04:59:42;;;;;;;1.63;1.02;;;25.70;39.00;;;;;;5150501;27;45322;-68
2023/07/21 05:02:09;;;;;;;1.05;1.05;;;25.70;39.00;;;;;;5149910;27;45473;-68
2023/07/21 05:04:36;;;;;;;1.45;1.10;;;25.70;39.60;;;;;;5150052;27;45435;-69
2023/07/21 05:07:04;;;;;;;1.30;1.20;;;25.70;39.00;;;;;;5148682;27;46025;-68
2023/07/21 05:09:31;;;;;;;1.90;1.10;;;25.60;39.00;;;;;;5149707;27;45545;-68
2023/07/21 05:11:58;;;;;;;1.58;1.10;;;25.60;39.00;;;;;;5149604;27;46404;-69
2023/07/21 05:14:25;;;;;;;1.15;1.13;;;25.60;39.00;;;;;;5148844;27;45378;-69
2023/07/21 05:16:52;;;;;;;1.90;1.33;;;25.60;39.10;;;;;;5149567;27;45525;-69
2023/07/21 05:19:18;;;;;;;1.08;1.08;;;25.60;39.10;;;;;;5150079;27;45419;-69
2023/07/21 05:21:45;;;;;;;2.63;1.38;;;25.60;39.20;;;;;;5149139;27;46490;-69
2023/07/21 05:24:13;;;;;;;1.58;0.95;;;25.60;39.20;;;;;;5148032;27;45395;-69
2023/07/21 05:26:40;;;;;;;1.13;1.10;;;25.60;39.20;;;;;;5149656;27;45358;-68
2023/07/21 05:29:08;;;;;;;1.48;1.23;;;25.60;39.20;;;;;;5149798;27;45299;-69
2023/07/21 05:31:36;;;;;;;2.30;1.17;;;25.60;39.30;;;;;;5149501;27;45632;-69
2023/07/21 05:34:07;;;;;;;2.15;1.38;;;25.60;39.20;;;;;;5149451;27;45320;-69
2023/07/21 05:36:34;;;;;;;1.00;1.00;;;25.60;39.20;;;;;;5149552;27;45313;-69
2023/07/21 05:39:02;;;;;;;2.88;1.25;;;25.60;39.20;;;;;;5149665;27;45298;-69
2023/07/21 05:41:30;;;;;;;0.70;0.70;;;25.60;39.30;;;;;;5149158;27;45282;-69
2023/07/21 05:43:58;;;;;;;1.27;1.17;;;25.60;39.20;;;;;;5149131;27;45362;-68
2023/07/21 05:46:25;;;;;;;1.98;1.17;;;25.60;39.30;;;;;;5149441;27;45390;-69
2023/07/21 05:48:51;;;;;;;1.27;1.17;;;25.60;39.20;;;;;;5149544;27;45393;-68
2023/07/21 05:51:18;;;;;;;1.30;1.20;;;25.60;39.30;;;;;;5149102;27;46346;-69
2023/07/21 05:53:45;;;;;;;2.58;1.13;;;25.60;39.30;;;;;;5148570;27;45345;-69
2023/07/21 05:56:12;;;;;;;1.10;1.10;;;25.60;39.30;;;;;;5149221;27;45342;-69
2023/07/21 05:58:41;;;;;;;1.30;1.05;;;25.50;39.20;;;;;;5149279;27;45293;-68
2023/07/21 06:01:10;;;;;;;1.70;1.10;;;25.50;39.90;;;;;;5148332;27;46408;-69
2023/07/21 06:03:38;;;;;;;1.52;1.00;;;25.60;39.30;;;;;;5148899;27;45479;-69
2023/07/21 06:06:05;;;;;;;1.00;1.00;;;25.60;39.30;;;;;;5148991;27;45357;-69
2023/07/21 06:08:32;;;;;;;1.10;0.93;;;25.60;39.30;;;;;;5149373;27;45628;-69
2023/07/21 06:11:00;;;;;;;1.85;1.25;;;25.60;39.30;;;;;;5148801;27;47435;-69
2023/07/21 06:13:28;;;;;;;1.25;1.17;;;25.60;39.30;;;;;;5148970;27;45323;-69
2023/07/21 06:15:56;;;;;;;1.55;1.10;;;25.60;39.30;;;;;;5148859;27;45622;-69
2023/07/21 06:18:23;;;;;;;1.02;1.00;;;25.60;39.30;;;;;;5149396;27;45332;-68
2023/07/21 06:20:52;;;;;;;1.20;1.10;;;25.60;39.30;;;;;;5148681;27;46383;-69
2023/07/21 06:23:18;;;;;;;1.40;1.00;;;25.60;39.30;;;;;;5148878;27;45326;-69
2023/07/21 06:25:45;;;;;;;1.10;1.10;;;25.60;39.30;;;;;;5148745;27;45298;-69
2023/07/21 06:28:12;;;;;;;1.13;1.10;;;25.60;39.20;;;;;;5148631;27;45502;-68
2023/07/21 06:30:39;;;;;;;1.35;1.25;;;25.60;39.30;;;;;;5148859;27;46407;-70
2023/07/21 06:33:07;;;;;;;1.85;1.33;;;25.60;39.30;;;;;;5148978;27;45332;-70
2023/07/21 06:35:35;;;;;;;1.88;1.00;;;25.60;39.30;;;;;;5148682;27;45418;-70
2023/07/21 06:38:03;;;;;;;1.30;1.10;;;25.60;39.30;;;;;;5148806;27;45430;-70
2023/07/21 06:40:30;;;;;;;1.40;1.20;;;25.60;39.40;;;;;;5148316;27;45471;-70
2023/07/21 06:42:57;;;;;;;1.10;1.10;;;25.60;39.40;;;;;;5148213;27;45306;-70
2023/07/21 06:45:24;;;;;;;1.10;1.00;;;25.60;39.40;;;;;;5148434;27;45300;-70
2023/07/21 06:47:51;;;;;;;1.30;1.20;;;25.70;39.60;;;;;;5147827;27;45359;-70
2023/07/21 06:50:20;;;;;;;1.88;1.00;;;25.60;39.60;;;;;;5148417;27;45512;-70
2023/07/21 06:52:46;;;;;;;1.35;1.20;;;25.70;39.50;;;;;;5148069;27;45314;-70
2023/07/21 06:55:13;;;;;;;1.27;1.17;;;25.70;39.50;;;;;;5148345;27;45381;-70
2023/07/21 06:57:40;;;;;;;2.42;1.10;;;25.70;39.40;;;;;;5148537;27;45372;-69
2023/07/21 07:00:08;;;;;;;1.30;1.20;;;25.70;39.40;;;;;;5148200;27;47310;-70
2023/07/21 07:02:35;;;;;;;1.13;1.02;;;25.70;39.40;;;;;;5148218;27;45313;-70
2023/07/21 07:05:02;;;;;;;1.92;1.20;;;25.70;40.00;;;;;;5148063;27;45350;-70
2023/07/21 07:07:30;;;;;;;1.70;1.10;;;25.80;40.00;;;;;;5148416;27;45350;-71
2023/07/21 07:09:57;;;;;;;1.05;0.95;;;25.80;39.40;;;;;;5147894;27;46619;-71
2023/07/21 07:12:24;;;;;;;2.67;1.25;;;25.80;39.30;;;;;;5147603;27;45376;-70
2023/07/21 07:14:50;;;;;;;1.27;1.17;;;25.80;39.30;;;;;;5148064;27;45142;-70
2023/07/21 07:17:17;;;;;;;1.30;1.20;;;25.80;39.30;;;;;;5148086;27;45314;-70
2023/07/21 07:19:44;;;;;;;1.42;1.33;;;25.80;39.30;;;;;;5147785;27;47399;-70
2023/07/21 07:22:12;;;;;;;1.27;1.05;;;25.80;39.30;;;;;;5147536;27;45368;-70
2023/07/21 07:24:40;;;;;;;1.27;1.17;;;25.80;39.20;;;;;;5147733;27;45317;-72
2023/07/21 07:27:07;;;;;;;4.75;1.50;;;25.80;39.40;;;;;;5148094;27;45411;-69
2023/07/21 07:29:35;;;;;;;2.38;1.35;;;25.90;40.00;;;;;;5146868;27;46449;-69
2023/07/21 07:32:02;;;;;;;1.90;1.25;;;25.80;40.80;;;;;;5142883;27;45533;-70
2023/07/21 07:34:28;;;;;;;5.72;1.45;;;25.70;40.10;;;;;;5143908;27;45465;-70
2023/07/21 07:36:55;;;;;;;2.92;1.10;;;25.60;40.70;;;;;;5146192;27;45407;-70
2023/07/21 07:39:22;;;;;;;1.33;1.10;;;25.60;40.20;;;;;;5146402;27;46729;-70
2023/07/21 07:41:51;;;;;;;3.00;1.23;;;25.70;40.50;;;;;;5149971;27;45380;-70
2023/07/21 07:44:20;;;;;;;4.03;1.65;;;25.70;39.90;;;;;;5151450;27;45311;-69
2023/07/21 07:46:47;;;;;;;4.10;1.27;;;25.70;39.70;;;;;;5130472;27;45470;-71
2023/07/21 07:49:14;;;;;;;5.95;1.38;;;25.80;39.30;;;;;;5144742;27;45905;-70
2023/07/21 07:51:40;;;;;;;2.83;1.50;;;25.80;39.50;;;;;;5150511;27;45383;-68
2023/07/21 07:54:08;;;;;;;4.35;1.40;;;25.80;39.50;;;;;;5148020;27;45587;-70
2023/07/21 07:56:34;;;;;;;1.40;1.30;;;25.90;39.20;;;;;;5150360;27;45306;-69
2023/07/21 07:59:03;;;;;;;3.70;1.13;;;26.00;39.30;;;;;;5146073;27;46295;-70
2023/07/21 08:01:29;;;;;;;1.92;1.20;;;26.00;39.60;;;;;;5149877;27;45401;-69
2023/07/21 08:03:56;;;;;;;2.13;0.93;;;26.10;39.70;;;;;;5146281;27;45415;-71
2023/07/21 08:06:23;;;;;;;2.40;1.42;;;26.20;39.10;;;;;;5148387;27;45343;-69
2023/07/21 08:08:50;;;;;;;1.92;1.23;;;26.30;38.80;;;;;;5143400;27;45524;-71
2023/07/21 08:11:17;;;;;;;4.82;1.30;;;26.30;38.80;;;;;;5151036;27;45138;-70
2023/07/21 08:13:44;;;;;;;2.40;1.10;;;26.30;39.10;;;;;;5151504;27;45503;-71
2023/07/21 08:16:13;;;;;;;1.98;1.27;;;26.40;39.00;;;;;;5151583;27;45302;-70
2023/07/21 08:18:40;;;;;;;2.22;1.33;;;26.40;39.10;;;;;;5149007;27;45323;-70
2023/07/21 08:21:20;;;;;;;2.20;1.17;;;26.50;39.20;;;;;;5149273;27;45350;-69
2023/07/21 08:23:47;;;;;;;4.20;1.65;;;26.60;39.50;;;;;;5143697;27;45405;-69
2023/07/21 08:26:14;;;;;;;1.35;1.20;;;26.70;39.30;;;;;;5150240;27;45195;-70
2023/07/21 08:28:41;;;;;;;2.40;1.15;;;26.70;38.90;;;;;;5146723;27;45441;-69
2023/07/21 08:31:09;;;;;;;3.63;1.10;;;26.80;38.80;;;;;;5148579;27;45412;-70
2023/07/21 08:33:37;;;;;;;2.22;1.20;;;26.80;38.20;;;;;;5150878;27;45303;-69
2023/07/21 08:36:05;;;;;;;3.67;1.50;;;26.80;38.70;;;;;;5151080;27;45418;-71
2023/07/21 08:38:33;;;;;;;7.85;1.80;;;26.90;38.50;;;;;;5146630;27;46553;-71
2023/07/21 08:41:03;;;;;;;5.68;1.50;;;27.00;37.90;;;;;;5147093;27;45426;-71
2023/07/21 08:43:30;;;;;;;5.13;1.27;;;26.90;37.60;;;;;;5149935;27;45302;-71
2023/07/21 08:45:59;;;;;;;9.10;1.50;;;26.80;37.40;;;;;;5150343;27;45469;-67
2023/07/21 08:48:25;;;;;;;2.25;0.82;;;26.80;37.90;;;;;;5148986;27;45453;-70
2023/07/21 08:50:55;;;;;;;5.55;1.50;;;26.80;38.00;;;;;;5149961;27;45358;-70
2023/07/21 08:53:22;;;;;;;2.40;1.20;;;26.90;38.40;;;;;;5150080;27;45299;-68
2023/07/21 08:55:49;;;;;;;2.28;1.10;;;27.00;37.80;;;;;;5151202;27;45372;-67
2023/07/21 08:58:16;;;;;;;2.85;1.40;;;27.10;38.40;;;;;;5147991;27;45533;-69
2023/07/21 09:00:43;;;;;;;4.28;1.50;;;27.10;38.10;;;;;;5148223;27;45396;-70
2023/07/21 09:03:10;;;;;;;10.98;1.67;;;27.20;37.40;;;;;;5149294;27;45397;-70
2023/07/21 09:05:36;;;;;;;1.52;1.25;;;27.30;37.40;;;;;;5147055;27;45526;-70
2023/07/21 09:08:05;;;;;;;4.22;1.40;;;27.30;37.50;;;;;;5147114;27;45411;-69
2023/07/21 09:10:33;;;;;;;4.47;1.38;;;27.30;37.80;;;;;;5143945;27;45618;-70
2023/07/21 09:13:00;;;;;;;6.38;1.63;;;27.30;37.80;;;;;;5150014;27;45363;-72
2023/07/21 09:15:27;;;;;;;1.48;1.15;;;27.40;37.40;;;;;;5145456;27;45409;-70
2023/07/21 09:17:54;;;;;;;1.52;1.30;;;27.50;37.80;;;;;;5147751;27;46435;-71
2023/07/21 09:20:20;;;;;;;2.88;1.27;;;27.50;37.20;;;;;;5147894;27;45245;-69
2023/07/21 09:22:48;;;;;;;1.88;1.30;;;27.60;37.30;;;;;;5149743;27;45656;-70
2023/07/21 09:25:21;;;;;;;5.90;1.35;;;27.60;37.00;;;;;;5148435;27;45298;-70
2023/07/21 09:27:53;;;;;;;5.20;1.70;;;27.50;37.00;;;;;;5138691;27;45478;-70
2023/07/21 09:30:19;;;;;;;1.35;1.25;;;27.50;37.10;;;;;;5149183;27;45288;-70
2023/07/21 09:32:46;;;;;;;1.75;1.20;;;27.50;37.10;;;;;;5147118;27;45402;-70
2023/07/21 09:35:13;;;;;;;4.57;1.30;;;27.50;37.00;;;;;;5142445;27;45443;-70
2023/07/21 09:37:41;;;;;;;2.40;1.25;;;27.50;37.00;;;;;;5142745;27;46794;-69
2023/07/21 09:40:09;;;;;;;2.88;1.35;;;27.60;37.50;;;;;;5145941;27;45463;-70
2023/07/21 09:42:38;;;;;;;1.77;1.20;;;27.60;37.10;;;;;;5147295;27;45438;-69
2023/07/21 09:45:06;;;;;;;1.60;1.23;;;27.70;37.40;;;;;;5144008;27;45457;-68
2023/07/21 09:47:32;;;;;;;7.38;1.25;;;27.80;36.90;;;;;;5142843;27;45327;-69
2023/07/21 09:49:59;;;;;;;7.70;1.40;;;27.90;37.10;;;;;;5149261;27;45482;-69
2023/07/21 09:52:27;;;;;;;1.60;1.20;;;28.00;36.60;;;;;;5144539;27;45469;-68
2023/07/21 09:54:56;;;;;;;1.27;1.17;;;28.10;36.10;;;;;;5141048;27;45403;-70
2023/07/21 09:57:24;;;;;;;3.63;1.10;;;28.10;35.50;;;;;;5150790;27;45502;-70
2023/07/21 09:59:55;;;;;;;3.90;1.75;;;28.20;35.60;;;;;;5149251;27;45316;-69
2023/07/21 10:02:23;;;;;;;2.72;1.10;;;28.20;35.30;;;;;;5148950;27;45281;-68
2023/07/21 10:04:49;;;;;;;1.73;1.08;;;28.30;35.40;;;;;;5137695;27;45418;-72
2023/07/21 10:07:16;;;;;;;1.40;1.10;;;28.30;35.00;;;;;;5149752;27;45285;-70
2023/07/21 10:09:44;;;;;;;8.45;1.65;;;28.20;35.10;;;;;;5147398;27;45368;-69
2023/07/21 10:12:11;;;;;;;3.05;1.23;;;28.30;34.90;;;;;;5148467;27;45240;-71
2023/07/21 10:14:38;;;;;;;2.38;1.38;;;28.30;35.30;;;;;;5146036;27;45116;-69
2023/07/21 10:17:07;;;;;;;1.00;1.00;;;28.30;35.10;;;;;;5144437;27;45452;-70
2023/07/21 10:19:39;;;;;;;3.92;1.30;;;28.40;34.70;;;;;;5148155;27;45439;-70
2023/07/21 10:22:07;;;;;;;1.67;1.23;;;28.40;34.50;;;;;;5149840;27;45322;-70
2023/07/21 10:24:34;;;;;;;1.33;1.20;;;28.40;34.50;;;;;;5150069;27;45303;-69
2023/07/21 10:27:02;;;;;;;1.25;1.13;;;28.40;34.00;;;;;;5149294;27;46723;-70
2023/07/21 10:29:29;;;;;;;1.13;1.00;;;28.40;33.90;;;;;;5148557;27;45308;-70
2023/07/21 10:31:56;;;;;;;20.63;2.97;;;28.40;34.00;;;;;;5149471;27;45412;-71
2023/07/21 10:34:27;;;;;;;3.55;1.30;;;28.40;34.20;;;;;;5148399;27;45348;-71
2023/07/21 10:36:58;;;;;;;5.72;1.20;;;28.40;33.70;;;;;;5144668;27;45556;-69
2023/07/21 10:39:26;;;;;;;7.28;1.45;;;28.40;34.20;;;;;;5143190;27;45665;-69
2023/07/21 10:41:53;;;;;;;8.77;1.90;;;28.50;33.90;;;;;;5147596;27;45276;-69
2023/07/21 10:44:20;;;;;;;4.35;1.27;;;28.50;33.50;;;;;;5147770;27;45379;-70
2023/07/21 10:46:48;;;;;;;2.03;1.13;;;28.50;33.70;;;;;;5147921;27;46604;-70
2023/07/21 10:49:16;;;;;;;2.42;1.23;;;28.50;33.50;;;;;;5146633;27;45359;-70
2023/07/21 10:51:45;;;;;;;4.65;1.95;;;28.50;33.20;;;;;;5146035;27;45231;-70
2023/07/21 10:54:11;;;;;;;6.45;1.80;;;28.50;33.50;;;;;;5147455;27;45414;-69
2023/07/21 10:56:39;;;;;;;2.58;1.30;;;28.60;33.60;;;;;;5143071;27;46398;-69
2023/07/21 10:59:06;;;;;;;3.17;1.40;;;28.60;33.70;;;;;;5145800;27;45219;-69
2023/07/21 11:01:36;;;;;;;4.38;1.30;;;28.60;33.30;;;;;;5147873;27;45381;-69
2023/07/21 11:04:04;;;;;;;2.53;1.35;;;28.60;33.30;;;;;;5146345;27;45429;-70
2023/07/21 11:06:30;;;;;;;3.22;1.38;;;28.60;33.60;;;;;;5143048;27;46990;-69
2023/07/21 11:08:58;;;;;;;5.00;1.55;;;28.50;33.40;;;;;;5145953;27;45351;-69
2023/07/21 11:11:25;;;;;;;3.85;1.50;;;28.50;34.10;;;;;;5142586;27;45458;-70
2023/07/21 11:13:52;;;;;;;4.22;1.73;;;28.60;33.10;;;;;;5147133;27;45402;-69
2023/07/21 11:16:19;;;;;;;6.18;2.03;;;28.70;33.00;;;;;;5142204;27;46624;-70
2023/07/21 11:18:46;;;;;;;5.25;1.60;;;28.70;32.80;;;;;;5150366;27;45450;-69
2023/07/21 11:21:12;;;;;;;5.43;1.45;;;28.70;32.80;;;;;;5151302;27;45185;-70
2023/07/21 11:23:39;;;;;;;5.88;1.40;;;28.70;32.70;;;;;;5152621;27;45357;-71
2023/07/21 11:26:09;;;;;;;11.23;2.08;;;28.70;33.40;;;;;;5151631;27;45568;-71
2023/07/21 11:28:37;;;;;;;9.02;1.85;;;28.70;33.90;;;;;;5150249;27;45560;-69
2023/07/21 11:31:10;;;;;;;1.38;1.20;;;28.90;33.90;;;;;;5151717;27;45252;-70
2023/07/21 11:33:41;;;;;;;4.32;1.60;;;28.90;34.00;;;;;;5152192;27;45178;-70
2023/07/21 11:36:15;;;;;;;3.25;1.40;;;28.90;33.80;;;;;;5150754;27;45466;-68
2023/07/21 11:38:42;;;;;;;3.13;1.83;;;28.90;33.60;;;;;;5152031;27;45290;-68
2023/07/21 11:41:10;;;;;;;3.70;1.30;;;28.80;34.20;;;;;;5145559;27;45407;-68
2023/07/21 11:43:52;;;;;;;6.65;1.45;;;28.70;33.80;;;;;;5144938;27;45426;-69
2023/07/21 11:46:24;;;;;;;21.88;3.40;;;28.60;34.10;;;;;;5144281;27;46261;-68
2023/07/21 11:48:51;;;;;;;10.90;2.05;;;28.70;34.80;;;;;;5148671;27;45499;-68
2023/07/21 11:51:18;;;;;;;10.73;1.73;;;28.70;34.80;;;;;;5139685;27;45513;-70
2023/07/21 11:53:45;;;;;;;8.82;1.70;;;28.80;34.20;;;;;;5146619;27;45534;-69
2023/07/21 11:56:14;;;;;;;4.28;1.40;;;28.80;33.60;;;;;;5149743;27;46752;-68
2023/07/21 11:58:42;;;;;;;9.75;1.75;;;28.80;33.50;;;;;;5151272;27;45252;-68
2023/07/21 12:01:08;;;;;;;3.28;1.60;;;28.80;33.40;;;;;;5145176;27;46145;-67
2023/07/21 12:03:36;;;;;;;3.67;1.73;;;28.70;33.40;;;;;;5151027;27;45454;-68
2023/07/21 12:06:03;;;;;;;1.83;1.45;;;28.70;33.20;;;;;;5151232;27;46716;-68
2023/07/21 12:08:30;;;;;;;2.28;1.40;;;28.70;33.50;;;;;;5151104;27;45184;-68
2023/07/21 12:10:57;;;;;;;1.60;1.05;;;28.70;33.50;;;;;;5136985;27;45297;-67
2023/07/21 12:13:25;;;;;;;1.45;1.35;;;28.70;33.70;;;;;;5140591;27;46911;-68
2023/07/21 12:15:53;;;;;;;2.25;1.42;;;28.70;33.70;;;;;;5139378;27;46741;-68
2023/07/21 12:18:21;;;;;;;2.38;1.20;;;28.70;33.60;;;;;;5148699;27;45500;-70
2023/07/21 12:20:47;;;;;;;2.13;1.30;;;28.60;33.60;;;;;;5150242;27;45297;-70
2023/07/21 12:23:14;;;;;;;2.28;1.23;;;28.60;33.60;;;;;;5148286;27;45474;-70
2023/07/21 12:25:41;;;;;;;1.45;1.20;;;28.50;33.60;;;;;;5150068;27;45223;-70
2023/07/21 12:28:08;;;;;;;1.98;1.55;;;28.60;33.80;;;;;;5147198;27;45187;-72
2023/07/21 12:30:36;;;;;;;1.23;1.13;;;28.50;34.10;;;;;;5151153;27;45390;-73
2023/07/21 12:33:03;;;;;;;1.35;1.17;;;28.50;34.00;;;;;;5134416;27;45471;-73
2023/07/21 12:35:30;;;;;;;3.05;1.42;;;28.50;34.10;;;;;;5142521;27;46812;-72
2023/07/21 12:37:57;;;;;;;2.88;1.30;;;28.60;34.10;;;;;;5141583;27;45248;-73
2023/07/21 12:40:24;;;;;;;2.15;1.20;;;28.60;34.10;;;;;;5149031;27;45275;-73
2023/07/21 12:42:50;;;;;;;1.70;1.10;;;28.60;34.20;;;;;;5150107;27;45294;-72
2023/07/21 12:45:17;;;;;;;2.17;1.20;;;28.70;34.00;;;;;;5144717;27;45737;-73
2023/07/21 12:47:45;;;;;;;1.38;1.13;;;28.70;33.80;;;;;;5147966;27;45367;-73